sensor_id;sensor_type;location;lat;lon;timestamp;temperature;humidity
3402;DHT22;1714;49.756;8.610;2023-06-26T00:08:19;21.30;1.00
3402;DHT22;1714;49.756;8.610;2023-06-26T00:18:55;21.10;1.00
3402;DHT22;1714;49.756;8.610;2023-06-26T00:29:30;20.90;1.00
3402;DHT22;1714;49.756;8.610;2023-06-26T00:40:06;20.90;1.00
3402;DHT22;1714;49.756;8.610;2023-06-26T00:50:41;20.80;1.00
3402;DHT22;1714;49.756;8.610;2023-06-26T01:01:17;20.50;1.00
3402;DHT22;1714;49.756;8.610;2023-06-26T01:11:56;20.50;1.00
3402;DHT22;1714;49.756;8.610;2023-06-26T01:33:30;20.20;1.00
3402;DHT22;1714;49.756;8.610;2023-06-26T01:44:17;20.10;1.00
3402;DHT22;1714;49.756;8.610;2023-06-26T01:55:02;20.00;1.00
3402;DHT22;1714;49.756;8.610;2023-06-26T02:05:38;19.90;1.00
3402;DHT22;1714;49.756;8.610;2023-06-26T02:16:13;19.90;1.00
3402;DHT22;1714;49.756;8.610;2023-06-26T02:26:49;19.80;1.00
3402;DHT22;1714;49.756;8.610;2023-06-26T02:37:24;19.50;1.00
3402;DHT22;1714;49.756;8.610;2023-06-26T02:47:59;19.50;1.00
3402;DHT22;1714;49.756;8.610;2023-06-26T02:58:35;19.30;1.00
3402;DHT22;1714;49.756;8.610;2023-06-26T03:09:11;19.10;1.00
3402;DHT22;1714;49.756;8.610;2023-06-26T03:19:45;19.00;1.00
3402;DHT22;1714;49.756;8.610;2023-06-26T03:30:33;18.90;1.00
3402;DHT22;1714;49.756;8.610;2023-06-26T03:41:08;18.90;1.00
3402;DHT22;1714;49.756;8.610;2023-06-26T03:51:43;18.90;1.00
3402;DHT22;1714;49.756;8.610;2023-06-26T04:02:18;18.80;1.00
3402;DHT22;1714;49.756;8.610;2023-06-26T04:12:53;18.70;1.00
3402;DHT22;1714;49.756;8.610;2023-06-26T04:23:28;18.80;1.00
3402;DHT22;1714;49.756;8.610;2023-06-26T04:34:03;19.00;1.00
3402;DHT22;1714;49.756;8.610;2023-06-26T04:44:38;19.00;1.00
3402;DHT22;1714;49.756;8.610;2023-06-26T04:55:12;19.00;1.00
3402;DHT22;1714;49.756;8.610;2023-06-26T05:05:47;19.10;1.00
3402;DHT22;1714;49.756;8.610;2023-06-26T05:16:22;19.30;1.00
3402;DHT22;1714;49.756;8.610;2023-06-26T05:26:57;19.50;1.00
3402;DHT22;1714;49.756;8.610;2023-06-26T05:37:34;19.70;1.00
3402;DHT22;1714;49.756;8.610;2023-06-26T05:48:08;20.00;1.00
3402;DHT22;1714;49.756;8.610;2023-06-26T05:58:44;20.20;1.00
3402;DHT22;1714;49.756;8.610;2023-06-26T06:09:19;20.60;1.00
3402;DHT22;1714;49.756;8.610;2023-06-26T06:19:53;21.00;1.00
3402;DHT22;1714;49.756;8.610;2023-06-26T06:30:28;21.50;1.00
3402;DHT22;1714;49.756;8.610;2023-06-26T06:41:19;21.90;1.00
3402;DHT22;1714;49.756;8.610;2023-06-26T06:51:54;22.30;1.00
3402;DHT22;1714;49.756;8.610;2023-06-26T07:02:29;22.90;1.00
3402;DHT22;1714;49.756;8.610;2023-06-26T07:13:04;23.40;1.00
3402;DHT22;1714;49.756;8.610;2023-06-26T07:23:39;23.90;1.00
3402;DHT22;1714;49.756;8.610;2023-06-26T07:34:14;24.50;1.00
3402;DHT22;1714;49.756;8.610;2023-06-26T07:44:48;25.90;1.00
3402;DHT22;1714;49.756;8.610;2023-06-26T07:55:23;27.00;1.00
3402;DHT22;1714;49.756;8.610;2023-06-26T08:06:00;27.80;1.00
3402;DHT22;1714;49.756;8.610;2023-06-26T08:16:35;28.30;1.00
3402;DHT22;1714;49.756;8.610;2023-06-26T08:27:10;29.20;1.00
3402;DHT22;1714;49.756;8.610;2023-06-26T08:37:45;29.70;1.00
3402;DHT22;1714;49.756;8.610;2023-06-26T08:48:21;30.30;1.00
3402;DHT22;1714;49.756;8.610;2023-06-26T08:58:56;29.90;1.00
3402;DHT22;1714;49.756;8.610;2023-06-26T09:09:31;30.90;1.00
3402;DHT22;1714;49.756;8.610;2023-06-26T09:20:05;30.80;1.00
3402;DHT22;1714;49.756;8.610;2023-06-26T09:30:42;30.90;1.00
3402;DHT22;1714;49.756;8.610;2023-06-26T09:41:20;31.60;1.00
3402;DHT22;1714;49.756;8.610;2023-06-26T09:51:55;32.40;1.00
3402;DHT22;1714;49.756;8.610;2023-06-26T10:02:30;32.50;1.00
3402;DHT22;1714;49.756;8.610;2023-06-26T10:13:22;32.50;1.00
3402;DHT22;1714;49.756;8.610;2023-06-26T10:24:00;31.90;1.00
3402;DHT22;1714;49.756;8.610;2023-06-26T10:34:37;31.00;1.00
3402;DHT22;1714;49.756;8.610;2023-06-26T10:45:20;31.20;1.00
3402;DHT22;1714;49.756;8.610;2023-06-26T10:56:01;31.50;1.00
3402;DHT22;1714;49.756;8.610;2023-06-26T11:06:40;32.40;1.00
3402;DHT22;1714;49.756;8.610;2023-06-26T11:17:18;33.30;1.00
3402;DHT22;1714;49.756;8.610;2023-06-26T11:27:53;34.10;1.00
3402;DHT22;1714;49.756;8.610;2023-06-26T11:38:37;32.70;1.00
3402;DHT22;1714;49.756;8.610;2023-06-26T11:49:12;33.30;1.00
3402;DHT22;1714;49.756;8.610;2023-06-26T11:59:51;34.20;1.00
3402;DHT22;1714;49.756;8.610;2023-06-26T12:10:26;34.40;1.00
3402;DHT22;1714;49.756;8.610;2023-06-26T12:21:02;34.70;1.00
3402;DHT22;1714;49.756;8.610;2023-06-26T12:31:42;35.10;1.00
3402;DHT22;1714;49.756;8.610;2023-06-26T12:42:28;34.70;1.00
3402;DHT22;1714;49.756;8.610;2023-06-26T12:53:02;33.40;1.00
3402;DHT22;1714;49.756;8.610;2023-06-26T13:03:37;33.30;1.00
3402;DHT22;1714;49.756;8.610;2023-06-26T13:14:12;33.20;1.00
3402;DHT22;1714;49.756;8.610;2023-06-26T13:24:48;33.50;1.00
3402;DHT22;1714;49.756;8.610;2023-06-26T13:35:26;33.90;1.00
3402;DHT22;1714;49.756;8.610;2023-06-26T13:46:01;33.00;1.00
3402;DHT22;1714;49.756;8.610;2023-06-26T13:56:37;33.10;1.00
3402;DHT22;1714;49.756;8.610;2023-06-26T14:07:12;33.00;1.00
3402;DHT22;1714;49.756;8.610;2023-06-26T14:17:46;32.60;1.00
3402;DHT22;1714;49.756;8.610;2023-06-26T14:28:24;32.30;1.00
3402;DHT22;1714;49.756;8.610;2023-06-26T14:38:59;32.70;1.00
3402;DHT22;1714;49.756;8.610;2023-06-26T14:49:35;32.70;1.00
3402;DHT22;1714;49.756;8.610;2023-06-26T15:00:10;32.30;1.00
3402;DHT22;1714;49.756;8.610;2023-06-26T15:10:45;31.80;1.00
3402;DHT22;1714;49.756;8.610;2023-06-26T15:21:20;31.80;1.00
3402;DHT22;1714;49.756;8.610;2023-06-26T15:31:55;31.90;1.00
3402;DHT22;1714;49.756;8.610;2023-06-26T15:42:29;31.70;1.00
3402;DHT22;1714;49.756;8.610;2023-06-26T15:53:04;31.80;1.00
3402;DHT22;1714;49.756;8.610;2023-06-26T16:03:39;31.80;1.00
3402;DHT22;1714;49.756;8.610;2023-06-26T16:14:15;31.60;1.00
3402;DHT22;1714;49.756;8.610;2023-06-26T16:24:59;31.50;1.00
3402;DHT22;1714;49.756;8.610;2023-06-26T16:35:34;31.00;1.00
3402;DHT22;1714;49.756;8.610;2023-06-26T16:46:08;30.50;1.00
3402;DHT22;1714;49.756;8.610;2023-06-26T16:56:43;29.60;1.00
3402;DHT22;1714;49.756;8.610;2023-06-26T17:07:18;29.20;1.00
3402;DHT22;1714;49.756;8.610;2023-06-26T17:17:53;28.70;1.00
3402;DHT22;1714;49.756;8.610;2023-06-26T17:28:28;27.80;1.00
3402;DHT22;1714;49.756;8.610;2023-06-26T17:39:05;27.80;1.00
3402;DHT22;1714;49.756;8.610;2023-06-26T17:49:40;27.30;1.00
3402;DHT22;1714;49.756;8.610;2023-06-26T18:00:15;26.90;1.00
3402;DHT22;1714;49.756;8.610;2023-06-26T18:10:50;26.40;1.00
3402;DHT22;1714;49.756;8.610;2023-06-26T18:21:25;26.10;1.00
3402;DHT22;1714;49.756;8.610;2023-06-26T18:32:00;25.90;1.00
3402;DHT22;1714;49.756;8.610;2023-06-26T18:42:35;25.60;1.00
3402;DHT22;1714;49.756;8.610;2023-06-26T18:53:10;25.30;1.00
3402;DHT22;1714;49.756;8.610;2023-06-26T19:03:45;24.90;1.00
3402;DHT22;1714;49.756;8.610;2023-06-26T19:14:20;24.80;1.00
3402;DHT22;1714;49.756;8.610;2023-06-26T19:24:54;24.60;1.00
3402;DHT22;1714;49.756;8.610;2023-06-26T19:35:29;24.20;1.00
3402;DHT22;1714;49.756;8.610;2023-06-26T19:46:04;24.10;1.00
3402;DHT22;1714;49.756;8.610;2023-06-26T19:56:39;24.00;1.00
3402;DHT22;1714;49.756;8.610;2023-06-26T20:07:14;23.80;1.00
3402;DHT22;1714;49.756;8.610;2023-06-26T20:17:48;23.60;1.00
3402;DHT22;1714;49.756;8.610;2023-06-26T20:28:23;23.40;1.00
3402;DHT22;1714;49.756;8.610;2023-06-26T20:38:58;23.30;1.00
3402;DHT22;1714;49.756;8.610;2023-06-26T20:49:33;23.20;1.00
3402;DHT22;1714;49.756;8.610;2023-06-26T21:00:10;23.00;1.00
3402;DHT22;1714;49.756;8.610;2023-06-26T21:10:45;22.90;1.00
3402;DHT22;1714;49.756;8.610;2023-06-26T21:21:20;22.90;1.00
3402;DHT22;1714;49.756;8.610;2023-06-26T21:31:54;22.70;1.00
3402;DHT22;1714;49.756;8.610;2023-06-26T21:42:29;22.60;1.00
3402;DHT22;1714;49.756;8.610;2023-06-26T21:53:05;22.60;1.00
3402;DHT22;1714;49.756;8.610;2023-06-26T22:03:39;22.50;1.00
3402;DHT22;1714;49.756;8.610;2023-06-26T22:14:14;22.30;1.00
3402;DHT22;1714;49.756;8.610;2023-06-26T22:24:49;22.20;1.00
3402;DHT22;1714;49.756;8.610;2023-06-26T22:35:24;22.00;1.00
3402;DHT22;1714;49.756;8.610;2023-06-26T22:45:58;21.90;1.00
3402;DHT22;1714;49.756;8.610;2023-06-26T22:56:33;21.90;1.00
3402;DHT22;1714;49.756;8.610;2023-06-26T23:07:27;21.70;1.00
3402;DHT22;1714;49.756;8.610;2023-06-26T23:18:02;21.60;1.00
3402;DHT22;1714;49.756;8.610;2023-06-26T23:28:37;21.50;1.00
3402;DHT22;1714;49.756;8.610;2023-06-26T23:39:12;21.30;1.00
3402;DHT22;1714;49.756;8.610;2023-06-26T23:49:47;21.10;1.00
